createdAt,value
2023-08-30T00:00:42.544Z,94191.69
2023-08-30T00:03:12.952Z,94204.47
2023-08-30T00:05:42.278Z,94207.44
2023-08-30T00:08:10.896Z,94196.97
2023-08-30T00:10:40.792Z,94209.00
2023-08-30T00:13:09.251Z,94204.16
2023-08-30T00:15:37.553Z,94202.69
2023-08-30T00:18:06.504Z,94195.09
2023-08-30T00:20:35.226Z,94208.38
2023-08-30T00:23:03.359Z,94202.44
2023-08-30T00:25:31.664Z,94188.41
2023-08-30T00:28:01.524Z,94210.94
2023-08-30T00:30:29.861Z,94204.28
2023-08-30T00:32:58.094Z,94191.06
2023-08-30T00:35:26.255Z,94192.63
2023-08-30T00:37:54.424Z,94159.50
2023-08-30T00:40:26.070Z,94178.38
2023-08-30T00:42:54.996Z,94144.44
2023-08-30T00:45:25.004Z,94192.00
2023-08-30T00:47:53.828Z,94199.66
2023-08-30T00:50:22.445Z,94200.31
2023-08-30T00:52:53.165Z,94204.47
2023-08-30T00:55:21.403Z,94209.16
2023-08-30T00:57:49.404Z,94204.34
2023-08-30T01:00:18.562Z,94204.59
2023-08-30T01:02:48.161Z,94212.25
2023-08-30T01:05:19.128Z,94225.41
2023-08-30T01:07:47.231Z,94233.72
2023-08-30T01:10:15.444Z,94235.63
2023-08-30T01:12:50.796Z,94236.88
2023-08-30T01:15:22.558Z,94232.59
2023-08-30T01:17:55.815Z,94233.75
2023-08-30T01:20:25.708Z,94245.63
2023-08-30T01:23:00.500Z,94233.31
2023-08-30T01:25:38.912Z,94238.69
2023-08-30T01:28:10.390Z,94239.25
2023-08-30T01:30:42.549Z,94246.44
2023-08-30T01:33:11.627Z,94235.16
2023-08-30T01:35:42.335Z,94221.94
2023-08-30T01:38:12.290Z,94211.88
2023-08-30T01:40:43.480Z,94212.66
2023-08-30T01:43:13.669Z,94217.34
2023-08-30T01:45:46.319Z,94238.56
2023-08-30T01:48:16.785Z,94243.41
2023-08-30T01:50:46.146Z,94253.25
2023-08-30T01:53:16.035Z,94247.91
2023-08-30T01:55:45.299Z,94258.75
2023-08-30T01:58:14.790Z,94187.75
2023-08-30T02:00:43.185Z,94248.28
2023-08-30T02:03:12.275Z,94257.44
2023-08-30T02:05:45.972Z,94251.00
2023-08-30T02:08:19.292Z,94247.75
2023-08-30T02:10:54.785Z,94246.94
2023-08-30T02:13:29.103Z,94256.19
2023-08-30T02:15:58.232Z,94249.81
2023-08-30T02:18:28.284Z,94183.78
2023-08-30T02:20:58.728Z,94238.34
2023-08-30T02:23:27.400Z,94248.63
2023-08-30T02:25:57.537Z,94224.66
2023-08-30T02:28:27.324Z,94233.00
2023-08-30T02:30:56.227Z,94229.53
2023-08-30T02:33:24.302Z,94245.97
2023-08-30T02:35:52.443Z,94246.03
2023-08-30T02:38:20.414Z,94247.94
2023-08-30T02:40:48.573Z,94234.66
2023-08-30T02:43:17.033Z,94244.97
2023-08-30T02:45:46.627Z,94236.13
2023-08-30T02:48:14.643Z,94248.19
2023-08-30T02:50:43.065Z,94239.94
2023-08-30T02:53:11.269Z,94231.13
2023-08-30T02:55:39.280Z,94226.09
2023-08-30T02:58:07.804Z,94237.63
2023-08-30T03:00:36.511Z,94246.06
2023-08-30T03:03:06.650Z,94240.31
2023-08-30T03:05:35.040Z,94229.63
2023-08-30T03:08:03.049Z,94203.72
2023-08-30T03:10:31.167Z,94227.56
2023-08-30T03:13:00.582Z,94237.94
2023-08-30T03:15:28.778Z,94187.47
2023-08-30T03:17:57.009Z,94235.09
2023-08-30T03:20:26.588Z,94232.88
2023-08-30T03:22:54.776Z,94233.63
2023-08-30T03:25:22.882Z,94254.47
2023-08-30T03:27:51.147Z,94177.19
2023-08-30T03:30:19.486Z,94236.31
2023-08-30T03:32:47.700Z,94181.34
2023-08-30T03:35:18.590Z,94234.50
2023-08-30T03:37:48.322Z,94229.97
2023-08-30T03:40:16.407Z,94230.78
2023-08-30T03:42:44.631Z,94224.88
2023-08-30T03:45:12.986Z,94209.91
2023-08-30T03:47:41.477Z,94214.44
2023-08-30T03:50:10.593Z,94214.72
2023-08-30T03:52:38.958Z,94209.28
2023-08-30T03:55:09.607Z,94220.44
2023-08-30T03:57:37.735Z,94225.84
2023-08-30T04:00:06.866Z,94220.63
2023-08-30T04:02:34.831Z,94247.47
2023-08-30T04:05:02.999Z,94249.25
2023-08-30T04:07:31.206Z,94239.16
2023-08-30T04:10:00.117Z,94262.53
2023-08-30T04:12:30.021Z,94249.97
2023-08-30T04:14:58.419Z,94245.09
2023-08-30T04:17:26.622Z,94242.88
2023-08-30T04:19:55.340Z,94255.63
2023-08-30T04:22:23.596Z,94262.72
2023-08-30T04:24:52.209Z,94268.66
2023-08-30T04:27:20.764Z,94262.56
2023-08-30T04:29:50.636Z,94272.09
2023-08-30T04:32:18.691Z,94281.44
2023-08-30T04:34:47.090Z,94250.03
2023-08-30T04:37:16.223Z,94288.03
2023-08-30T04:39:44.610Z,94257.50
2023-08-30T04:42:12.866Z,94286.75
2023-08-30T04:44:41.138Z,94297.22
2023-08-30T04:47:10.538Z,94304.59
2023-08-30T04:49:39.178Z,94301.00
2023-08-30T04:52:08.430Z,94309.97
2023-08-30T04:54:36.727Z,94305.00
2023-08-30T04:57:05.099Z,94303.31
2023-08-30T04:59:33.303Z,94296.34
2023-08-30T05:02:01.394Z,94292.91
2023-08-30T05:04:31.191Z,94294.00
2023-08-30T05:06:59.728Z,94293.28
2023-08-30T05:09:28.226Z,94296.16
2023-08-30T05:11:56.465Z,94298.56
2023-08-30T05:14:25.154Z,94302.06
2023-08-30T05:16:54.126Z,94302.50
2023-08-30T05:19:22.551Z,94272.50
2023-08-30T05:21:56.172Z,94302.94
2023-08-30T05:24:24.715Z,94307.16
2023-08-30T05:26:52.752Z,94304.00
2023-08-30T05:29:21.174Z,94313.88
2023-08-30T05:31:49.681Z,94301.31
2023-08-30T05:34:17.870Z,94313.47
2023-08-30T05:36:46.083Z,94304.00
2023-08-30T05:39:15.769Z,94300.44
2023-08-30T05:41:44.128Z,94294.16
2023-08-30T05:44:12.252Z,94303.31
2023-08-30T05:46:40.436Z,94307.94
2023-08-30T05:49:09.254Z,94301.25
2023-08-30T05:51:37.376Z,94281.22
2023-08-30T05:54:06.040Z,94298.69
2023-08-30T05:56:35.640Z,94294.00
2023-08-30T05:59:03.822Z,94293.91
2023-08-30T06:01:32.025Z,94293.50
2023-08-30T06:04:00.156Z,94296.72
2023-08-30T06:06:28.682Z,94298.63
2023-08-30T06:08:56.785Z,94236.22
2023-08-30T06:11:24.833Z,94289.31
2023-08-30T06:13:54.696Z,94284.97
2023-08-30T06:16:23.248Z,94289.78
2023-08-30T06:18:51.777Z,94251.09
2023-08-30T06:21:20.007Z,94286.09
2023-08-30T06:23:48.067Z,94275.56
2023-08-30T06:26:17.023Z,94294.00
2023-08-30T06:28:55.087Z,94286.78
2023-08-30T06:31:33.811Z,94280.47
2023-08-30T06:34:02.163Z,94280.13
2023-08-30T06:36:30.101Z,94261.34
2023-08-30T06:38:58.040Z,94292.72
2023-08-30T06:41:27.463Z,94287.22
2023-08-30T06:43:55.936Z,94287.56
2023-08-30T06:46:24.395Z,94305.84
2023-08-30T06:48:56.225Z,94246.69
2023-08-30T06:51:24.585Z,94249.25
2023-08-30T06:53:52.941Z,94299.41
2023-08-30T06:56:21.298Z,94247.16
2023-08-30T06:58:49.622Z,94253.03
2023-08-30T07:01:17.631Z,94297.25
2023-08-30T07:03:55.466Z,94273.50
2023-08-30T07:06:25.523Z,94284.06
2023-08-30T07:08:53.525Z,94285.59
2023-08-30T07:11:32.823Z,94297.09
2023-08-30T07:14:02.380Z,94293.84
2023-08-30T07:16:31.028Z,94282.47
2023-08-30T07:18:59.532Z,94284.34
2023-08-30T07:21:28.861Z,94287.81
2023-08-30T07:23:57.207Z,94286.34
2023-08-30T07:26:25.300Z,94297.09
2023-08-30T07:28:53.969Z,94228.88
2023-08-30T07:31:22.990Z,94287.88
2023-08-30T07:33:51.152Z,94290.66
2023-08-30T07:36:20.455Z,94292.34
2023-08-30T07:38:50.916Z,94274.13
2023-08-30T07:41:18.958Z,94296.56
2023-08-30T07:43:47.226Z,94291.81
2023-08-30T07:46:15.504Z,94299.00
2023-08-30T07:48:43.775Z,94285.13
2023-08-30T07:51:12.067Z,94285.13
2023-08-30T07:53:40.331Z,94286.06
2023-08-30T07:56:09.974Z,94183.16
2023-08-30T07:58:38.361Z,94285.44
2023-08-30T08:01:06.555Z,94274.47
2023-08-30T08:03:34.681Z,94283.16
2023-08-30T08:06:02.834Z,94260.34
2023-08-30T08:08:30.961Z,94293.78
2023-08-30T08:10:58.985Z,94291.16
2023-08-30T08:13:28.671Z,94296.56
2023-08-30T08:15:58.970Z,94295.25
2023-08-30T08:18:28.469Z,94295.72
2023-08-30T08:20:56.636Z,94296.56
2023-08-30T08:23:25.116Z,94306.81
2023-08-30T08:26:00.471Z,94278.53
2023-08-30T08:28:33.645Z,94301.94
2023-08-30T08:31:04.242Z,94285.75
2023-08-30T08:33:32.543Z,94262.69
2023-08-30T08:36:00.803Z,94298.53
2023-08-30T08:38:31.756Z,94307.38
2023-08-30T08:41:04.745Z,94298.97
2023-08-30T08:43:36.883Z,94304.41
2023-08-30T08:46:07.853Z,94311.09
2023-08-30T08:48:41.988Z,94310.75
2023-08-30T08:51:10.836Z,94302.25
2023-08-30T08:53:40.614Z,94302.91
2023-08-30T08:56:10.406Z,94297.28
2023-08-30T08:58:40.816Z,94279.44
2023-08-30T09:01:21.412Z,94292.25
2023-08-30T09:03:53.770Z,94226.84
2023-08-30T09:06:23.507Z,94295.72
2023-08-30T09:08:51.990Z,94293.78
2023-08-30T09:11:20.164Z,94298.84
2023-08-30T09:13:50.214Z,94271.72
2023-08-30T09:16:19.070Z,94281.88
2023-08-30T09:19:00.345Z,94287.16
2023-08-30T09:21:35.316Z,94296.72
2023-08-30T09:24:05.177Z,94290.03
2023-08-30T09:26:34.211Z,94275.03
2023-08-30T09:29:07.830Z,94263.91
2023-08-30T09:31:37.925Z,94282.97
2023-08-30T09:34:07.046Z,94281.72
2023-08-30T09:36:38.656Z,94250.56
2023-08-30T09:39:07.400Z,94268.94
2023-08-30T09:41:35.903Z,94275.09
2023-08-30T09:44:17.095Z,94282.31
2023-08-30T09:46:51.715Z,94281.47
2023-08-30T09:49:23.420Z,94275.19
2023-08-30T09:51:53.923Z,94240.00
2023-08-30T09:54:38.158Z,94266.28
2023-08-30T09:57:08.088Z,94275.31
2023-08-30T09:59:39.166Z,94250.00
2023-08-30T10:02:08.212Z,94206.06
2023-08-30T10:04:40.656Z,94259.38
2023-08-30T10:07:09.240Z,94264.25
2023-08-30T10:09:48.572Z,94260.91
2023-08-30T10:12:22.969Z,94258.81
2023-08-30T10:14:52.705Z,94219.28
2023-08-30T10:17:23.950Z,94201.25
2023-08-30T10:19:54.037Z,94237.41
2023-08-30T10:22:23.903Z,94252.28
2023-08-30T10:25:11.119Z,94248.75
2023-08-30T10:27:44.393Z,94249.34
2023-08-30T10:30:18.077Z,94248.69
2023-08-30T10:32:48.155Z,94244.75
2023-08-30T10:35:17.925Z,94239.00
2023-08-30T10:37:56.457Z,94247.44
2023-08-30T10:40:24.793Z,94240.41
2023-08-30T10:43:03.533Z,94236.78
2023-08-30T10:45:36.171Z,94227.44
2023-08-30T10:48:05.140Z,94242.19
2023-08-30T10:50:34.666Z,94217.81
2023-08-30T10:53:03.217Z,94231.31
2023-08-30T10:55:31.422Z,94229.63
2023-08-30T10:58:05.741Z,94238.56
2023-08-30T11:00:37.198Z,94233.16
2023-08-30T11:03:06.560Z,94211.31
2023-08-30T11:05:34.743Z,94229.63
2023-08-30T11:08:03.151Z,94238.41
2023-08-30T11:10:31.255Z,94228.16
2023-08-30T11:12:59.800Z,94227.19
2023-08-30T11:15:28.588Z,94219.50
2023-08-30T11:18:06.400Z,94234.16
2023-08-30T11:20:34.524Z,94231.09
2023-08-30T11:23:05.579Z,94228.22
2023-08-30T11:25:33.620Z,94194.91
2023-08-30T11:28:05.398Z,94221.88
2023-08-30T11:30:34.031Z,94215.72
2023-08-30T11:33:02.177Z,94199.88
2023-08-30T11:35:32.683Z,94200.63
2023-08-30T11:38:02.501Z,94208.31
2023-08-30T11:40:30.624Z,94205.81
2023-08-30T11:42:59.591Z,94202.78
2023-08-30T11:45:27.708Z,94188.22
2023-08-30T11:47:56.231Z,94183.28
2023-08-30T11:50:30.404Z,94188.78
2023-08-30T11:53:06.277Z,94170.97
2023-08-30T11:55:35.051Z,94181.19
2023-08-30T11:58:04.468Z,94182.66
2023-08-30T12:00:36.497Z,94130.38
2023-08-30T12:03:04.967Z,94178.72
2023-08-30T12:05:35.114Z,94168.06
2023-08-30T12:08:03.392Z,94166.47
2023-08-30T12:10:33.823Z,94170.91
2023-08-30T12:13:02.323Z,94157.06
2023-08-30T12:15:35.822Z,94165.56
2023-08-30T12:18:09.298Z,94167.94
2023-08-30T12:20:37.922Z,94150.34
2023-08-30T12:23:06.167Z,94156.59
2023-08-30T12:25:35.591Z,94158.28
2023-08-30T12:28:04.967Z,94160.03
2023-08-30T12:30:33.531Z,94157.69
2023-08-30T12:33:03.967Z,94161.25
2023-08-30T12:35:32.175Z,94151.41
2023-08-30T12:38:00.554Z,94154.06
2023-08-30T12:40:28.793Z,94149.94
2023-08-30T12:42:58.321Z,94131.53
2023-08-30T12:45:26.529Z,94123.00
2023-08-30T12:47:54.977Z,94134.38
2023-08-30T12:50:23.495Z,94133.75
2023-08-30T12:52:51.575Z,94133.50
2023-08-30T12:55:20.424Z,94129.97
2023-08-30T12:57:49.046Z,94128.19
2023-08-30T13:00:19.292Z,94047.94
2023-08-30T13:02:47.419Z,94115.94
2023-08-30T13:05:16.094Z,94098.69
2023-08-30T13:07:44.574Z,94121.16
2023-08-30T13:10:13.407Z,94115.84
2023-08-30T13:12:45.425Z,94117.47
2023-08-30T13:15:14.107Z,94116.44
2023-08-30T13:17:43.899Z,94110.78
2023-08-30T13:20:13.302Z,94117.50
2023-08-30T13:22:41.526Z,94110.16
2023-08-30T13:25:10.104Z,94113.31
2023-08-30T13:27:38.247Z,94124.25
2023-08-30T13:30:09.179Z,94115.72
2023-08-30T13:32:37.276Z,94124.66
2023-08-30T13:35:07.836Z,94113.94
2023-08-30T13:37:35.811Z,94119.94
2023-08-30T13:40:07.193Z,94128.97
2023-08-30T13:45:05.590Z,94112.59
2023-08-30T13:47:33.775Z,94114.72
2023-08-30T13:50:05.240Z,94122.22
2023-08-30T13:52:35.031Z,94124.34
2023-08-30T13:55:03.651Z,94132.63
2023-08-30T13:57:32.021Z,94109.56
2023-08-30T14:00:00.189Z,94116.41
2023-08-30T14:02:28.581Z,94118.25
2023-08-30T14:04:59.598Z,94128.72
2023-08-30T14:07:27.672Z,94118.38
2023-08-30T14:09:57.833Z,94114.56
2023-08-30T14:12:28.882Z,94119.06
2023-08-30T14:14:58.035Z,94126.00
2023-08-30T14:17:29.511Z,94120.66
2023-08-30T14:19:57.609Z,94129.59
2023-08-30T14:22:25.951Z,94120.03
2023-08-30T14:25:10.692Z,94115.28
2023-08-30T14:27:42.395Z,94108.25
2023-08-30T14:30:14.456Z,94079.16
2023-08-30T14:32:44.702Z,94122.34
2023-08-30T14:35:14.049Z,94090.72
2023-08-30T14:37:42.473Z,94122.22
2023-08-30T14:40:11.386Z,94115.41
2023-08-30T14:42:39.590Z,94134.84
2023-08-30T14:45:10.847Z,94131.47
2023-08-30T14:47:42.374Z,94113.38
2023-08-30T14:50:11.021Z,94133.66
2023-08-30T14:52:40.018Z,94149.00
2023-08-30T14:55:09.875Z,94145.81
2023-08-30T14:57:38.375Z,94106.38
2023-08-30T15:00:09.653Z,94153.56
2023-08-30T15:02:38.236Z,94160.34
2023-08-30T15:05:06.859Z,94160.63
2023-08-30T15:07:35.232Z,94157.91
2023-08-30T15:10:03.860Z,94176.56
2023-08-30T15:12:31.946Z,94158.09
2023-08-30T15:15:00.284Z,94171.03
2023-08-30T15:17:29.960Z,94153.66
2023-08-30T15:19:58.342Z,94176.44
2023-08-30T15:22:26.690Z,94156.06
2023-08-30T15:24:55.081Z,94179.25
2023-08-30T15:27:23.557Z,94181.56
2023-08-30T15:29:55.059Z,94160.03
2023-08-30T15:32:23.611Z,94149.97
2023-08-30T15:34:53.598Z,94190.63
2023-08-30T15:37:21.802Z,94195.69
2023-08-30T15:40:02.445Z,94189.59
2023-08-30T15:42:31.840Z,94193.25
2023-08-30T15:45:00.297Z,94186.06
2023-08-30T15:47:29.147Z,94187.47
2023-08-30T15:49:59.795Z,94133.63
2023-08-30T15:52:28.709Z,94197.91
2023-08-30T15:54:58.739Z,94187.16
2023-08-30T15:57:26.880Z,94194.81
2023-08-30T15:59:55.102Z,94188.97
2023-08-30T16:02:23.256Z,94195.66
2023-08-30T16:04:51.862Z,94203.59
2023-08-30T16:07:21.732Z,94206.63
2023-08-30T16:09:49.870Z,94201.69
2023-08-30T16:12:18.121Z,94198.94
2023-08-30T16:14:46.106Z,94212.22
2023-08-30T16:17:14.130Z,94210.78
2023-08-30T16:19:42.220Z,94209.75
2023-08-30T16:22:10.521Z,94207.84
2023-08-30T16:24:40.456Z,94229.25
2023-08-30T16:27:09.217Z,94225.69
2023-08-30T16:29:37.661Z,94223.09
2023-08-30T16:32:06.689Z,94223.38
2023-08-30T16:34:35.673Z,94200.44
2023-08-30T16:37:05.273Z,94237.28
2023-08-30T16:39:33.581Z,94230.66
2023-08-30T16:42:03.868Z,94247.53
2023-08-30T16:44:31.984Z,94230.47
2023-08-30T16:47:00.152Z,94243.31
2023-08-30T16:49:28.373Z,94251.75
2023-08-30T16:51:57.064Z,94251.13
2023-08-30T16:54:25.741Z,94256.63
2023-08-30T16:56:56.840Z,94264.06
2023-08-30T16:59:26.337Z,94254.28
2023-08-30T17:01:54.408Z,94251.19
2023-08-30T17:04:22.574Z,94261.47
2023-08-30T17:06:51.134Z,94273.38
2023-08-30T17:09:19.224Z,94281.03
2023-08-30T17:11:47.269Z,94278.06
2023-08-30T17:14:17.971Z,94283.41
2023-08-30T17:16:47.900Z,94281.66
2023-08-30T17:19:16.008Z,94298.78
2023-08-30T17:21:44.046Z,94293.56
2023-08-30T17:24:12.490Z,94305.97
2023-08-30T17:26:41.146Z,94310.06
2023-08-30T17:29:10.012Z,94312.34
2023-08-30T17:31:38.861Z,94267.84
2023-08-30T17:34:08.455Z,94304.38
2023-08-30T17:36:38.993Z,94320.66
2023-08-30T17:39:07.027Z,94316.38
2023-08-30T17:41:36.713Z,94325.19
2023-08-30T17:44:04.901Z,94329.56
2023-08-30T17:46:34.203Z,94339.75
2023-08-30T17:49:02.751Z,94341.19
2023-08-30T17:51:32.600Z,94355.41
2023-08-30T17:54:01.225Z,94355.03
2023-08-30T17:56:29.269Z,94357.50
2023-08-30T17:58:57.781Z,94360.81
2023-08-30T18:01:28.806Z,94357.53
2023-08-30T18:03:57.110Z,94369.34
2023-08-30T18:06:26.394Z,94370.25
2023-08-30T18:08:55.774Z,94377.84
2023-08-30T18:11:25.287Z,94387.22
2023-08-30T18:13:53.757Z,94389.63
2023-08-30T18:16:25.031Z,94394.25
2023-08-30T18:18:56.139Z,94394.81
2023-08-30T18:21:25.384Z,94400.34
2023-08-30T18:24:17.969Z,94394.97
2023-08-30T18:26:48.772Z,94395.34
2023-08-30T18:29:18.538Z,94406.63
2023-08-30T18:31:49.507Z,94403.47
2023-08-30T18:34:19.488Z,94394.94
2023-08-30T18:36:47.864Z,94362.34
2023-08-30T18:39:18.273Z,94406.59
2023-08-30T18:41:46.265Z,94406.81
2023-08-30T18:44:14.263Z,94401.47
2023-08-30T18:46:42.634Z,94397.94
2023-08-30T18:49:10.865Z,94406.94
2023-08-30T18:51:39.039Z,94402.56
2023-08-30T18:54:07.970Z,94412.16
2023-08-30T18:56:37.396Z,94412.16
2023-08-30T18:59:06.542Z,94418.44
2023-08-30T19:01:34.842Z,94390.41
2023-08-30T19:04:04.082Z,94411.75
2023-08-30T19:06:32.396Z,94407.38
2023-08-30T19:09:00.495Z,94428.75
2023-08-30T19:11:29.546Z,94430.78
2023-08-30T19:13:59.376Z,94433.00
2023-08-30T19:16:27.582Z,94444.47
2023-08-30T19:18:56.283Z,94445.00
2023-08-30T19:21:25.230Z,94446.47
2023-08-30T19:23:53.217Z,94454.56
2023-08-30T19:26:22.676Z,94457.91
2023-08-30T19:28:51.024Z,94452.94
2023-08-30T19:31:23.337Z,94413.25
2023-08-30T19:33:52.424Z,94460.09
2023-08-30T19:36:23.017Z,94439.06
2023-08-30T19:38:53.586Z,94424.88
2023-08-30T19:41:21.845Z,94469.69
2023-08-30T19:43:55.451Z,94465.25
2023-08-30T19:46:25.435Z,94471.13
2023-08-30T19:48:54.658Z,94438.25
2023-08-30T19:51:25.569Z,94471.84
2023-08-30T19:53:55.725Z,94438.81
2023-08-30T19:56:24.367Z,94464.66
2023-08-30T19:58:53.032Z,94461.91
2023-08-30T20:01:21.813Z,94473.69
2023-08-30T20:03:53.666Z,94478.31
2023-08-30T20:06:22.077Z,94478.16
2023-08-30T20:08:50.183Z,94478.50
2023-08-30T20:11:18.364Z,94486.22
2023-08-30T20:13:46.544Z,94491.19
2023-08-30T20:16:16.555Z,94489.53
2023-08-30T20:18:44.712Z,94497.97
2023-08-30T20:21:17.484Z,94483.50
2023-08-30T20:23:45.943Z,94490.91
2023-08-30T20:26:14.419Z,94489.03
2023-08-30T20:28:43.391Z,94495.28
2023-08-30T20:31:14.050Z,94502.06
2023-08-30T20:33:42.276Z,94461.31
2023-08-30T20:36:11.615Z,94498.94
2023-08-30T20:38:41.054Z,94498.97
2023-08-30T20:41:09.458Z,94517.34
2023-08-30T20:43:37.973Z,94504.47
2023-08-30T20:46:07.143Z,94510.72
2023-08-30T20:48:35.820Z,94512.53
2023-08-30T20:51:04.706Z,94521.34
2023-08-30T20:53:36.901Z,94513.16
2023-08-30T20:56:09.777Z,94526.38
2023-08-30T20:58:42.904Z,94495.88
2023-08-30T21:01:11.112Z,94526.03
2023-08-30T21:03:40.262Z,94529.47
2023-08-30T21:06:09.188Z,94534.03
2023-08-30T21:08:40.560Z,94533.03
2023-08-30T21:11:11.024Z,94534.44
2023-08-30T21:13:39.301Z,94521.09
2023-08-30T21:16:07.506Z,94540.28
2023-08-30T21:18:35.605Z,94543.34
2023-08-30T21:21:04.000Z,94545.47
2023-08-30T21:23:32.219Z,94549.72
2023-08-30T21:26:00.884Z,94533.84
2023-08-30T21:28:33.754Z,94547.19
2023-08-30T21:31:02.424Z,94537.03
2023-08-30T21:33:30.655Z,94547.19
2023-08-30T21:36:04.742Z,94556.09
2023-08-30T21:38:32.953Z,94554.22
2023-08-30T21:41:01.715Z,94550.19
2023-08-30T21:43:31.524Z,94554.97
2023-08-30T21:45:59.643Z,94559.31
2023-08-30T21:48:28.230Z,94558.38
2023-08-30T21:50:57.984Z,94559.09
2023-08-30T21:53:27.666Z,94559.41
2023-08-30T21:55:56.139Z,94540.44
2023-08-30T21:58:24.526Z,94550.63
2023-08-30T22:00:55.137Z,94548.66
2023-08-30T22:03:23.640Z,94487.72
2023-08-30T22:05:51.852Z,94547.75
2023-08-30T22:08:20.389Z,94556.84
2023-08-30T22:10:48.451Z,94554.56
2023-08-30T22:13:16.902Z,94545.91
2023-08-30T22:15:45.195Z,94542.09
2023-08-30T22:18:16.676Z,94541.03
2023-08-30T22:20:44.730Z,94542.00
2023-08-30T22:23:13.178Z,94525.44
2023-08-30T22:25:41.465Z,94520.53
2023-08-30T22:28:09.797Z,94535.19
2023-08-30T22:30:38.294Z,94536.59
2023-08-30T22:33:08.693Z,94539.84
2023-08-30T22:35:38.446Z,94547.22
2023-08-30T22:38:07.285Z,94540.84
2023-08-30T22:40:35.344Z,94545.34
2023-08-30T22:43:07.535Z,94544.78
2023-08-30T22:45:35.786Z,94553.44
2023-08-30T22:48:04.274Z,94542.81
2023-08-30T22:50:32.988Z,94560.19
2023-08-30T22:53:02.496Z,94546.53
2023-08-30T22:55:30.679Z,94561.38
2023-08-30T22:57:58.856Z,94567.34
2023-08-30T23:00:28.777Z,94568.84
2023-08-30T23:02:56.881Z,94569.75
2023-08-30T23:05:25.004Z,94571.25
2023-08-30T23:07:53.372Z,94572.94
2023-08-30T23:10:25.807Z,94573.34
2023-08-30T23:12:54.188Z,94549.25
2023-08-30T23:15:23.801Z,94587.06
2023-08-30T23:17:52.652Z,94590.13
2023-08-30T23:20:21.636Z,94584.59
2023-08-30T23:22:51.292Z,94494.63
2023-08-30T23:25:20.002Z,94578.81
2023-08-30T23:27:51.414Z,94563.88
2023-08-30T23:30:19.551Z,94576.41
2023-08-30T23:32:47.926Z,94560.53
2023-08-30T23:35:15.973Z,94515.25
2023-08-30T23:37:44.296Z,94578.16
2023-08-30T23:40:12.786Z,94565.44
2023-08-30T23:42:41.425Z,94569.47
2023-08-30T23:45:12.409Z,94544.28
2023-08-30T23:47:40.933Z,94569.66
2023-08-30T23:50:10.077Z,94571.56
2023-08-30T23:52:38.255Z,94572.31
2023-08-30T23:55:07.380Z,94568.41
2023-08-30T23:57:35.717Z,94574.75
